createdAt,value
2023-03-16T00:00:12.617Z,8.36
2023-03-16T00:05:12.799Z,8.37
2023-03-16T00:10:16.589Z,8.51
2023-03-16T00:15:17.842Z,8.04
2023-03-16T00:20:20.650Z,8.14
2023-03-16T00:25:20.974Z,8.32
2023-03-16T00:30:23.326Z,8.28
2023-03-16T00:35:30.416Z,8.82
2023-03-16T00:40:34.172Z,8.50
2023-03-16T00:45:32.936Z,8.25
2023-03-16T00:50:34.548Z,8.15
2023-03-16T00:55:35.398Z,8.14
2023-03-16T01:00:38.189Z,8.01
2023-03-16T01:05:39.871Z,8.16
2023-03-16T01:10:45.402Z,8.20
2023-03-16T01:15:46.185Z,8.25
2023-03-16T01:20:55.388Z,8.40
2023-03-16T01:25:56.051Z,8.56
2023-03-16T01:30:57.818Z,8.71
2023-03-16T01:35:57.814Z,8.44
2023-03-16T01:40:58.204Z,8.39
2023-03-16T01:46:07.359Z,8.21
2023-03-16T01:51:14.332Z,8.21
2023-03-16T01:56:17.292Z,8.98
2023-03-16T02:01:18.961Z,8.43
2023-03-16T02:06:20.518Z,8.24
2023-03-16T02:11:29.960Z,8.32
2023-03-16T02:16:46.204Z,8.35
2023-03-16T02:21:47.843Z,8.47
2023-03-16T02:26:49.010Z,8.14
2023-03-16T02:32:00.327Z,8.06
2023-03-16T02:37:03.090Z,8.14
2023-03-16T02:42:03.124Z,8.08
2023-03-16T02:47:10.528Z,8.03
2023-03-16T02:52:15.018Z,8.05
2023-03-16T02:57:13.776Z,8.21
2023-03-16T03:02:18.295Z,8.64
2023-03-16T03:07:17.047Z,8.57
2023-03-16T03:12:33.294Z,8.68
2023-03-16T03:17:32.286Z,8.76
2023-03-16T03:22:34.816Z,8.65
2023-03-16T03:27:34.034Z,8.66
2023-03-16T03:32:40.076Z,8.78
2023-03-16T03:37:39.913Z,8.93
2023-03-16T03:42:39.552Z,8.51
2023-03-16T03:47:41.550Z,8.35
2023-03-16T03:52:50.180Z,8.21
2023-03-16T03:57:52.671Z,8.29
2023-03-16T04:02:56.606Z,8.14
2023-03-16T04:08:05.938Z,8.22
2023-03-16T04:13:05.886Z,8.20
2023-03-16T04:18:07.929Z,8.38
2023-03-16T04:23:10.085Z,8.33
2023-03-16T04:28:12.111Z,7.97
2023-03-16T04:33:19.636Z,7.96
2023-03-16T04:38:21.835Z,7.90
2023-03-16T04:43:28.457Z,7.64
2023-03-16T04:48:34.911Z,7.55
2023-03-16T04:53:39.446Z,7.17
2023-03-16T04:58:47.668Z,7.10
2023-03-16T05:03:45.451Z,7.27
2023-03-16T05:08:45.435Z,7.69
2023-03-16T05:13:46.181Z,7.21
2023-03-16T05:18:51.667Z,6.91
2023-03-16T05:24:01.345Z,7.22
2023-03-16T05:29:04.173Z,6.84
2023-03-16T05:34:06.668Z,6.79
2023-03-16T05:39:10.974Z,7.04
2023-03-16T05:44:17.930Z,7.12
2023-03-16T05:49:40.245Z,7.00
2023-03-16T05:54:54.243Z,6.86
2023-03-16T05:59:54.910Z,6.82
2023-03-16T06:05:08.875Z,7.16
2023-03-16T06:10:15.668Z,6.78
2023-03-16T06:15:15.148Z,6.51
2023-03-16T06:20:29.955Z,6.53
2023-03-16T06:25:38.369Z,7.06
2023-03-16T06:30:42.722Z,6.61
2023-03-16T06:35:44.979Z,6.50
2023-03-16T06:40:53.742Z,6.64
2023-03-16T06:45:55.901Z,6.81
2023-03-16T06:50:56.071Z,7.15
2023-03-16T06:55:58.426Z,7.30
2023-03-16T07:01:04.387Z,7.00
2023-03-16T07:06:04.507Z,6.91
2023-03-16T07:11:03.844Z,7.22
2023-03-16T07:16:06.993Z,7.25
2023-03-16T07:21:05.657Z,7.29
2023-03-16T07:26:08.426Z,7.28
2023-03-16T07:31:15.011Z,7.42
2023-03-16T07:36:15.770Z,7.05
2023-03-16T07:41:23.944Z,6.49
2023-03-16T07:46:24.331Z,6.56
2023-03-16T07:51:24.241Z,6.31
2023-03-16T07:56:31.615Z,6.15
2023-03-16T08:01:44.785Z,6.10
2023-03-16T08:06:44.996Z,6.04
2023-03-16T08:11:50.144Z,6.14
2023-03-16T08:16:49.646Z,6.56
2023-03-16T08:22:01.222Z,6.74
2023-03-16T08:27:21.450Z,6.72
2023-03-16T08:32:26.191Z,6.45
2023-03-16T08:37:44.085Z,6.55
2023-03-16T08:42:50.342Z,6.26
2023-03-16T08:47:57.358Z,6.34
2023-03-16T08:52:59.042Z,6.53
2023-03-16T08:58:05.120Z,6.62
2023-03-16T09:03:03.767Z,6.70
2023-03-16T09:08:06.897Z,6.81
2023-03-16T09:13:05.828Z,7.08
2023-03-16T09:18:08.478Z,7.29
2023-03-16T09:23:10.190Z,6.86
2023-03-16T09:28:13.624Z,6.84
2023-03-16T09:33:24.118Z,6.86
2023-03-16T09:38:26.645Z,6.86
2023-03-16T09:43:25.428Z,7.11
2023-03-16T09:48:30.519Z,6.84
2023-03-16T09:53:39.707Z,6.80
2023-03-16T09:58:39.707Z,6.70
2023-03-16T10:03:41.524Z,6.78
2023-03-16T10:08:48.262Z,6.82
2023-03-16T10:13:54.517Z,6.66
2023-03-16T10:18:54.897Z,6.62
2023-03-16T10:23:55.579Z,6.74
2023-03-16T10:28:56.970Z,6.87
2023-03-16T10:34:00.453Z,6.63
2023-03-16T10:39:05.161Z,7.05
2023-03-16T10:44:12.395Z,7.08
2023-03-16T10:49:20.774Z,6.70
2023-03-16T10:54:26.812Z,6.76
2023-03-16T10:59:47.916Z,6.70
2023-03-16T11:04:57.719Z,6.72
2023-03-16T11:10:01.110Z,6.75
2023-03-16T11:15:09.422Z,7.06
2023-03-16T11:20:23.317Z,7.05
2023-03-16T11:25:36.556Z,6.94
2023-03-16T11:30:42.284Z,7.28
2023-03-16T11:36:02.902Z,7.60
2023-03-16T11:41:21.877Z,7.53
2023-03-16T11:46:48.256Z,7.43
2023-03-16T11:51:56.996Z,7.85
2023-03-16T11:57:18.387Z,7.99
2023-03-16T12:02:34.591Z,7.53
2023-03-16T12:07:35.936Z,7.88
2023-03-16T12:12:38.320Z,8.32
2023-03-16T12:17:38.400Z,7.74
2023-03-16T12:22:46.186Z,7.34
2023-03-16T12:27:48.006Z,7.21
2023-03-16T12:33:02.010Z,7.27
2023-03-16T12:38:04.008Z,7.57
2023-03-16T12:43:11.911Z,7.37
2023-03-16T12:48:14.839Z,7.26
2023-03-16T12:53:27.904Z,7.14
2023-03-16T12:58:28.652Z,7.26
2023-03-16T13:03:29.845Z,7.59
2023-03-16T13:08:47.045Z,7.46
2023-03-16T13:14:15.171Z,7.27
2023-03-16T13:19:35.034Z,7.03
2023-03-16T13:24:53.450Z,6.96
2023-03-16T13:30:22.781Z,6.87
2023-03-16T13:35:38.109Z,7.00
2023-03-16T13:40:49.217Z,7.24
2023-03-16T13:45:51.630Z,7.24
2023-03-16T13:50:59.547Z,7.05
2023-03-16T13:56:02.283Z,7.18
2023-03-16T14:01:01.929Z,7.31
2023-03-16T14:06:03.715Z,7.28
2023-03-16T14:11:04.150Z,7.52
2023-03-16T14:16:10.104Z,7.83
2023-03-16T14:21:20.432Z,7.28
2023-03-16T14:26:33.157Z,7.26
2023-03-16T14:31:32.577Z,7.64
2023-03-16T14:36:40.861Z,7.22
2023-03-16T14:41:41.848Z,7.71
2023-03-16T14:46:44.342Z,7.79
2023-03-16T14:51:46.200Z,7.71
2023-03-16T14:57:08.593Z,7.97
2023-03-16T15:02:18.942Z,7.64
2023-03-16T15:07:25.345Z,7.80
2023-03-16T15:12:26.332Z,7.85
2023-03-16T15:17:26.159Z,7.63
2023-03-16T15:22:28.970Z,7.24
2023-03-16T15:27:31.540Z,7.59
2023-03-16T15:32:32.980Z,7.46
2023-03-16T15:37:33.805Z,7.45
2023-03-16T15:42:33.625Z,7.31
2023-03-16T15:47:34.997Z,7.66
2023-03-16T15:52:34.551Z,7.28
2023-03-16T15:57:35.779Z,7.23
2023-03-16T16:02:37.281Z,7.46
2023-03-16T16:07:35.093Z,7.26
2023-03-16T16:12:35.058Z,7.19
2023-03-16T16:17:50.645Z,7.22
2023-03-16T16:23:00.131Z,6.98
2023-03-16T16:28:02.105Z,7.13
2023-03-16T16:33:05.560Z,7.30
2023-03-16T16:38:05.008Z,7.17
2023-03-16T16:43:13.069Z,7.09
2023-03-16T16:48:21.738Z,7.31
2023-03-16T16:53:23.777Z,7.23
2023-03-16T16:58:25.238Z,7.63
2023-03-16T17:03:25.871Z,7.55
2023-03-16T17:08:26.275Z,7.70
2023-03-16T17:13:26.687Z,7.79
2023-03-16T17:18:25.380Z,7.99
2023-03-16T17:23:28.139Z,7.97
2023-03-16T17:28:30.717Z,7.83
2023-03-16T17:33:31.072Z,7.69
2023-03-16T17:38:36.643Z,7.47
2023-03-16T17:43:35.447Z,7.41
2023-03-16T17:48:38.646Z,7.39
2023-03-16T17:53:37.781Z,7.35
2023-03-16T17:58:41.439Z,7.40
2023-03-16T18:03:44.608Z,7.69
2023-03-16T18:08:47.367Z,7.40
2023-03-16T18:13:48.858Z,7.18
2023-03-16T18:18:49.197Z,7.33
2023-03-16T18:23:49.643Z,7.17
2023-03-16T18:28:53.620Z,7.32
2023-03-16T18:33:55.567Z,7.53
2023-03-16T18:39:09.265Z,7.55
2023-03-16T18:44:15.176Z,7.69
2023-03-16T18:49:29.209Z,7.21
2023-03-16T18:54:32.990Z,7.35
2023-03-16T18:59:32.169Z,7.11
2023-03-16T19:04:37.092Z,7.29
2023-03-16T19:09:36.137Z,7.34
2023-03-16T19:14:37.937Z,7.22
2023-03-16T19:19:38.364Z,7.16
2023-03-16T19:24:44.959Z,7.08
2023-03-16T19:29:52.155Z,6.95
2023-03-16T19:34:53.573Z,7.00
2023-03-16T19:39:56.930Z,6.89
2023-03-16T19:44:59.963Z,7.29
2023-03-16T19:49:59.177Z,6.98
2023-03-16T19:55:00.692Z,7.11
2023-03-16T20:00:02.612Z,6.97
2023-03-16T20:05:09.735Z,7.05
2023-03-16T20:10:09.069Z,7.16
2023-03-16T20:15:07.459Z,7.13
2023-03-16T20:20:06.533Z,7.31
2023-03-16T20:25:26.581Z,7.20
2023-03-16T20:30:34.398Z,7.29
2023-03-16T20:35:36.192Z,7.12
2023-03-16T20:40:34.571Z,7.00
2023-03-16T20:45:35.350Z,7.23
2023-03-16T20:50:38.695Z,7.01
2023-03-16T20:55:42.081Z,6.81
2023-03-16T21:00:44.546Z,7.16
2023-03-16T21:05:42.928Z,7.32
2023-03-16T21:10:42.126Z,7.07
2023-03-16T21:15:44.168Z,7.42
2023-03-16T21:20:48.789Z,7.54
2023-03-16T21:26:04.482Z,7.32
2023-03-16T21:31:03.998Z,7.39
2023-03-16T21:36:04.193Z,7.29
2023-03-16T21:41:08.388Z,7.24
2023-03-16T21:46:10.335Z,7.06
2023-03-16T21:51:13.877Z,7.16
2023-03-16T21:56:30.143Z,7.08
2023-03-16T22:01:29.576Z,7.51
2023-03-16T22:06:32.397Z,7.27
2023-03-16T22:11:34.136Z,7.01
2023-03-16T22:16:33.662Z,7.09
2023-03-16T22:21:40.683Z,7.08
2023-03-16T22:26:39.161Z,6.98
2023-03-16T22:31:45.785Z,7.04
2023-03-16T22:36:49.990Z,6.80
2023-03-16T22:41:50.952Z,7.07
2023-03-16T22:46:53.200Z,6.85
2023-03-16T22:51:53.996Z,6.87
2023-03-16T22:56:57.148Z,6.78
2023-03-16T23:02:00.327Z,6.76
2023-03-16T23:07:02.487Z,6.68
2023-03-16T23:12:04.768Z,6.55
2023-03-16T23:17:06.887Z,6.52
2023-03-16T23:22:27.506Z,6.67
2023-03-16T23:27:29.087Z,6.49
2023-03-16T23:32:27.892Z,6.68
2023-03-16T23:37:26.456Z,6.68
2023-03-16T23:42:24.855Z,6.53
2023-03-16T23:47:23.735Z,6.55
2023-03-16T23:52:27.559Z,6.38
2023-03-16T23:57:27.481Z,6.57
